Avon Downs, Australia
Current Conditions -  °F | °C
As of 12:30 AM on Saturday 01 Nov 2014 (Local Time) from YBMA Reporting Station
Clear Clear  
Wind Chill: 79°   Ceiling: Unl
Heat Index: 80°   Visibility: 6mi
Dew Point: 57°   Wind: 3mph
Humidity: 47%   Direction: 10°N
Pressure: 29.8"   Gusts: NA
Location:  20.02°S, 137.67°E
Report Text: YBMA 311530Z AUTO 01003KT 9999 // NCD 26/14 Q1009
Loading
Personal Weather Stations






























Interactive Weather Map
Tropical Storm Tracking
New forecast layout! Learn more

10-Day Weather Forecast

Advertisements
Track Severe Weather on mobile